Red Lake, Texas
Current Conditions -  °F | °C
As of 8:55 AM on Thursday 30 Oct 2014 (Local Time) from KPSN Reporting Station
Clear Clear  
Wind Chill: 57°   Ceiling: Unl
Heat Index: 57°   Visibility: 10mi
Dew Point: 49°   Wind: 5mph
Humidity: 74%   Direction: 130°SE
Pressure: 30.18"   Gusts: NA
Location:  31.5818°N, 95.8921°W
Report Text: KPSN 301355Z AUTO 13004KT 10SM CLR 13/09 A3018 RMK AO2 T01390094
Loading
Personal Weather Stations






























Interactive Weather Map New forecast layout! Learn more

10-Day Weather Forecast

Advertisements
Track Severe Weather on mobile